createdAt,value
2022-08-29T00:00:49.468Z,20.90
2022-08-29T00:03:17.768Z,20.80
2022-08-29T00:05:49.984Z,20.70
2022-08-29T00:08:17.739Z,20.70
2022-08-29T00:10:44.577Z,20.50
2022-08-29T00:13:13.605Z,20.50
2022-08-29T00:15:45.138Z,20.60
2022-08-29T00:18:14.245Z,20.50
2022-08-29T00:20:42.036Z,20.50
2022-08-29T00:23:09.558Z,20.50
2022-08-29T00:25:37.144Z,20.60
2022-08-29T00:28:05.030Z,20.70
2022-08-29T00:30:33.427Z,20.70
2022-08-29T00:33:00.416Z,20.60
2022-08-29T00:35:31.101Z,20.70
2022-08-29T00:37:58.457Z,20.80
2022-08-29T00:40:29.673Z,20.80
2022-08-29T00:42:57.325Z,20.90
2022-08-29T00:45:24.624Z,20.90
2022-08-29T00:48:11.957Z,21.00
2022-08-29T00:50:48.058Z,20.90
2022-08-29T00:53:17.387Z,21.00
2022-08-29T00:55:50.555Z,20.90
2022-08-29T00:58:37.589Z,20.90
2022-08-29T01:01:05.240Z,20.90
2022-08-29T01:03:34.142Z,20.90
2022-08-29T01:06:02.898Z,20.80
2022-08-29T01:08:30.384Z,21.00
2022-08-29T01:11:15.926Z,20.90
2022-08-29T01:13:46.811Z,20.90
2022-08-29T01:16:16.123Z,20.90
2022-08-29T01:18:47.389Z,20.90
2022-08-29T01:21:29.290Z,20.90
2022-08-29T01:24:29.726Z,20.90
2022-08-29T01:26:57.401Z,20.90
2022-08-29T01:29:24.263Z,20.90
2022-08-29T01:31:56.796Z,21.10
2022-08-29T01:34:26.801Z,21.00
2022-08-29T01:37:00.490Z,20.90
2022-08-29T01:39:36.525Z,20.90
2022-08-29T01:42:07.377Z,21.00
2022-08-29T01:44:34.246Z,21.00
2022-08-29T01:47:03.259Z,20.90
2022-08-29T01:49:32.624Z,20.80
2022-08-29T01:51:59.907Z,20.80
2022-08-29T01:54:27.213Z,20.80
2022-08-29T01:56:54.821Z,20.80
2022-08-29T01:59:26.222Z,20.90
2022-08-29T02:01:59.214Z,20.90
2022-08-29T02:04:26.008Z,21.00
2022-08-29T02:06:52.942Z,21.00
2022-08-29T02:09:19.885Z,21.00
2022-08-29T02:11:48.239Z,21.00
2022-08-29T02:14:19.054Z,21.10
2022-08-29T02:16:47.329Z,21.00
2022-08-29T02:19:14.472Z,21.00
2022-08-29T02:21:41.334Z,21.10
2022-08-29T02:24:24.341Z,21.10
2022-08-29T02:26:52.246Z,21.10
2022-08-29T02:29:19.053Z,21.00
2022-08-29T02:31:45.868Z,21.20
2022-08-29T02:34:13.032Z,21.10
2022-08-29T02:36:40.798Z,21.10
2022-08-29T02:39:08.934Z,21.10
2022-08-29T02:41:36.114Z,21.10
2022-08-29T02:44:03.548Z,21.20
2022-08-29T02:46:30.757Z,21.10
2022-08-29T02:49:00.656Z,21.10
2022-08-29T02:51:31.094Z,21.10
2022-08-29T02:53:58.207Z,21.00
2022-08-29T02:56:25.118Z,21.00
2022-08-29T02:58:52.069Z,20.90
2022-08-29T03:01:20.472Z,21.00
2022-08-29T03:03:47.906Z,21.00
2022-08-29T03:06:14.818Z,21.00
2022-08-29T03:08:41.655Z,21.00
2022-08-29T03:11:08.853Z,21.00
2022-08-29T03:13:37.056Z,21.00
2022-08-29T03:16:04.417Z,21.00
2022-08-29T03:18:31.335Z,21.10
2022-08-29T03:20:58.441Z,21.10
2022-08-29T03:23:25.556Z,21.10
2022-08-29T03:25:52.510Z,21.10
2022-08-29T03:28:19.392Z,21.10
2022-08-29T03:30:46.778Z,21.00
2022-08-29T03:33:13.711Z,21.00
2022-08-29T03:35:40.676Z,21.10
2022-08-29T03:38:07.666Z,21.00
2022-08-29T03:40:34.855Z,21.10
2022-08-29T03:43:03.369Z,21.10
2022-08-29T03:45:30.722Z,21.10
2022-08-29T03:47:57.624Z,21.10
2022-08-29T03:50:24.631Z,21.10
2022-08-29T03:52:52.088Z,21.10
2022-08-29T03:55:20.281Z,21.20
2022-08-29T03:57:47.337Z,21.30
2022-08-29T04:00:17.655Z,21.50
2022-08-29T04:02:46.578Z,22.00
2022-08-29T04:05:15.903Z,22.60
2022-08-29T04:07:51.732Z,23.20
2022-08-29T04:10:26.438Z,23.70
2022-08-29T04:12:55.037Z,23.90
2022-08-29T04:15:23.734Z,24.30
2022-08-29T04:17:54.528Z,24.70
2022-08-29T04:20:25.439Z,25.00
2022-08-29T04:22:54.309Z,25.10
2022-08-29T04:25:25.071Z,25.40
2022-08-29T04:27:53.346Z,25.70
2022-08-29T04:30:23.877Z,26.10
2022-08-29T04:32:50.913Z,26.50
2022-08-29T04:35:17.796Z,26.60
2022-08-29T04:37:44.941Z,26.70
2022-08-29T04:40:16.171Z,27.00
2022-08-29T04:42:43.286Z,27.00
2022-08-29T04:45:12.429Z,27.50
2022-08-29T04:47:40.176Z,27.80
2022-08-29T04:50:09.011Z,28.10
2022-08-29T04:52:36.978Z,28.30
2022-08-29T04:55:05.749Z,28.40
2022-08-29T04:57:34.049Z,28.30
2022-08-29T05:00:00.898Z,28.40
2022-08-29T05:02:28.456Z,28.70
2022-08-29T05:04:56.922Z,28.90
2022-08-29T05:07:26.823Z,29.00
2022-08-29T05:10:00.265Z,28.90
2022-08-29T05:12:29.269Z,28.90
2022-08-29T05:14:56.912Z,28.90
2022-08-29T05:17:24.538Z,29.00
2022-08-29T05:19:51.370Z,29.00
2022-08-29T05:22:19.905Z,29.00
2022-08-29T05:24:47.561Z,29.20
2022-08-29T05:27:20.194Z,29.00
2022-08-29T05:29:49.241Z,29.20
2022-08-29T05:32:17.554Z,29.10
2022-08-29T05:34:45.306Z,29.30
2022-08-29T05:37:19.468Z,29.30
2022-08-29T05:39:49.248Z,29.40
2022-08-29T05:42:17.632Z,29.90
2022-08-29T05:44:44.702Z,30.10
2022-08-29T05:47:14.300Z,30.40
2022-08-29T05:49:43.016Z,30.40
2022-08-29T05:52:11.708Z,30.40
2022-08-29T05:54:40.162Z,30.40
2022-08-29T05:57:08.081Z,30.60
2022-08-29T05:59:35.461Z,30.80
2022-08-29T06:02:02.721Z,30.80
2022-08-29T06:04:29.562Z,31.00
2022-08-29T06:06:56.443Z,31.00
2022-08-29T06:09:23.234Z,31.20
2022-08-29T06:11:53.132Z,31.20
2022-08-29T06:14:20.310Z,31.40
2022-08-29T06:16:47.261Z,31.40
2022-08-29T06:19:14.623Z,31.60
2022-08-29T06:21:41.675Z,31.80
2022-08-29T06:24:08.862Z,31.80
2022-08-29T06:26:35.967Z,32.30
2022-08-29T06:29:09.330Z,32.50
2022-08-29T06:31:36.425Z,32.60
2022-08-29T06:34:05.847Z,32.90
2022-08-29T06:36:34.504Z,32.90
2022-08-29T06:39:07.398Z,33.10
2022-08-29T06:41:35.753Z,33.10
2022-08-29T06:44:03.249Z,33.30
2022-08-29T06:46:33.023Z,33.50
2022-08-29T06:49:01.412Z,33.40
2022-08-29T06:51:32.871Z,33.70
2022-08-29T06:54:01.462Z,33.90
2022-08-29T06:56:32.353Z,34.10
2022-08-29T06:58:59.711Z,33.90
2022-08-29T07:01:27.073Z,33.90
2022-08-29T07:03:55.113Z,33.90
2022-08-29T07:06:22.259Z,34.00
2022-08-29T07:08:55.699Z,34.00
2022-08-29T07:11:28.065Z,33.70
2022-08-29T07:13:58.213Z,33.70
2022-08-29T07:16:26.340Z,33.90
2022-08-29T07:18:53.708Z,34.00
2022-08-29T07:21:24.190Z,34.00
2022-08-29T07:23:52.065Z,34.20
2022-08-29T07:26:25.213Z,34.40
2022-08-29T07:28:54.147Z,34.40
2022-08-29T07:31:21.451Z,34.80
2022-08-29T07:33:59.710Z,34.60
2022-08-29T07:36:30.010Z,34.70
2022-08-29T07:38:56.983Z,34.80
2022-08-29T07:41:24.865Z,34.90
2022-08-29T07:43:51.865Z,34.90
2022-08-29T07:46:22.826Z,34.70
2022-08-29T07:48:49.699Z,34.60
2022-08-29T07:51:20.197Z,34.70
2022-08-29T07:53:47.197Z,34.80
2022-08-29T07:56:19.224Z,34.70
2022-08-29T07:58:46.068Z,34.80
2022-08-29T08:01:16.021Z,34.70
2022-08-29T08:03:50.152Z,34.90
2022-08-29T08:06:19.653Z,34.70
2022-08-29T08:08:47.206Z,34.80
2022-08-29T08:11:14.065Z,34.80
2022-08-29T08:13:41.202Z,34.60
2022-08-29T08:16:15.423Z,34.70
2022-08-29T08:18:43.497Z,34.60
2022-08-29T08:21:12.447Z,34.70
2022-08-29T08:23:39.909Z,34.60
2022-08-29T08:26:08.743Z,34.70
2022-08-29T08:28:35.952Z,34.90
2022-08-29T08:31:06.784Z,34.70
2022-08-29T08:33:35.285Z,34.70
2022-08-29T08:36:03.970Z,34.70
2022-08-29T08:38:31.712Z,34.50
2022-08-29T08:41:04.308Z,34.50
2022-08-29T08:43:42.608Z,34.20
2022-08-29T08:46:09.545Z,34.20
2022-08-29T08:48:39.110Z,34.30
2022-08-29T08:51:13.998Z,34.10
2022-08-29T08:53:47.610Z,34.00
2022-08-29T08:56:28.478Z,34.20
2022-08-29T08:59:03.874Z,34.10
2022-08-29T09:01:56.490Z,34.20
2022-08-29T09:04:39.034Z,34.00
2022-08-29T09:07:44.347Z,34.00
2022-08-29T09:10:20.140Z,33.60
2022-08-29T09:13:24.581Z,33.60
2022-08-29T09:15:54.536Z,33.70
2022-08-29T09:18:35.058Z,33.60
2022-08-29T09:21:10.094Z,33.60
2022-08-29T09:23:57.673Z,33.70
2022-08-29T09:26:24.808Z,33.60
2022-08-29T09:28:51.606Z,33.50
2022-08-29T09:31:31.488Z,33.50
2022-08-29T09:34:00.450Z,33.40
2022-08-29T09:36:33.869Z,33.50
2022-08-29T09:39:24.067Z,33.40
2022-08-29T09:41:55.059Z,33.50
2022-08-29T09:44:26.939Z,33.50
2022-08-29T09:47:21.328Z,33.30
2022-08-29T09:50:13.014Z,33.10
2022-08-29T09:52:57.869Z,33.10
2022-08-29T09:55:32.676Z,33.00
2022-08-29T09:58:05.531Z,33.10
2022-08-29T10:00:39.356Z,33.10
2022-08-29T10:03:11.147Z,33.20
2022-08-29T10:05:41.679Z,33.20
2022-08-29T10:08:35.061Z,32.90
2022-08-29T10:11:17.873Z,33.10
2022-08-29T10:13:52.493Z,33.20
2022-08-29T10:16:28.476Z,33.30
2022-08-29T10:18:59.450Z,33.40
2022-08-29T10:22:07.462Z,33.50
2022-08-29T10:24:54.295Z,33.60
2022-08-29T10:27:46.738Z,33.50
2022-08-29T10:30:50.624Z,33.50
2022-08-29T10:33:36.254Z,33.60
2022-08-29T10:36:17.376Z,33.50
2022-08-29T10:38:48.014Z,33.60
2022-08-29T10:41:37.978Z,33.60
2022-08-29T10:44:35.193Z,33.70
2022-08-29T10:47:11.135Z,33.70
2022-08-29T10:50:43.774Z,33.70
2022-08-29T10:53:30.394Z,33.60
2022-08-29T10:56:19.160Z,33.60
2022-08-29T10:59:06.313Z,33.80
2022-08-29T11:01:36.248Z,33.90
2022-08-29T11:04:06.335Z,34.00
2022-08-29T11:06:41.135Z,34.00
2022-08-29T11:09:10.893Z,34.00
2022-08-29T11:11:41.394Z,33.80
2022-08-29T11:14:29.042Z,33.80
2022-08-29T11:16:56.510Z,33.90
2022-08-29T11:19:41.957Z,34.10
2022-08-29T11:22:21.365Z,34.20
2022-08-29T11:25:13.107Z,34.20
2022-08-29T11:28:17.960Z,34.20
2022-08-29T11:31:14.744Z,34.40
2022-08-29T11:33:55.591Z,34.30
2022-08-29T11:36:40.870Z,34.30
2022-08-29T11:39:13.797Z,34.00
2022-08-29T11:41:47.836Z,33.60
2022-08-29T11:44:19.958Z,33.10
2022-08-29T11:46:53.492Z,32.80
2022-08-29T11:49:36.448Z,32.50
2022-08-29T11:52:09.169Z,32.40
2022-08-29T11:54:35.912Z,32.20
2022-08-29T11:57:05.753Z,32.00
2022-08-29T11:59:50.891Z,31.80
2022-08-29T12:02:32.638Z,31.90
2022-08-29T12:04:59.497Z,32.10
2022-08-29T12:07:50.950Z,32.30
2022-08-29T12:10:21.971Z,32.20
2022-08-29T12:12:53.833Z,32.00
2022-08-29T12:15:32.700Z,32.20
2022-08-29T12:18:22.604Z,32.40
2022-08-29T12:20:58.674Z,32.20
2022-08-29T12:23:35.763Z,32.10
2022-08-29T12:26:45.579Z,32.10
2022-08-29T12:29:41.995Z,32.50
2022-08-29T12:32:23.129Z,32.70
2022-08-29T12:35:35.679Z,32.60
2022-08-29T12:38:07.698Z,32.60
2022-08-29T12:41:00.669Z,32.60
2022-08-29T12:43:43.862Z,32.50
2022-08-29T12:46:19.426Z,32.20
2022-08-29T12:48:57.681Z,32.40
2022-08-29T12:51:37.774Z,32.50
2022-08-29T12:54:05.676Z,32.90
2022-08-29T12:56:33.274Z,33.20
2022-08-29T12:59:03.645Z,33.40
2022-08-29T13:01:40.380Z,33.40
2022-08-29T13:04:16.043Z,33.40
2022-08-29T13:07:15.893Z,33.30
2022-08-29T13:09:52.330Z,33.20
2022-08-29T13:12:32.201Z,32.90
2022-08-29T13:15:20.792Z,32.70
2022-08-29T13:17:50.113Z,32.40
2022-08-29T13:20:38.710Z,32.10
2022-08-29T13:23:16.597Z,31.90
2022-08-29T13:25:59.888Z,31.70
2022-08-29T13:28:47.325Z,31.60
2022-08-29T13:31:17.095Z,31.40
2022-08-29T13:33:49.599Z,31.20
2022-08-29T13:36:50.746Z,31.10
2022-08-29T13:39:17.555Z,30.80
2022-08-29T13:41:57.709Z,30.70
2022-08-29T13:44:58.853Z,30.50
2022-08-29T13:47:31.296Z,30.20
2022-08-29T13:50:01.321Z,29.60
2022-08-29T13:52:31.934Z,28.90
2022-08-29T13:54:59.660Z,28.80
2022-08-29T13:57:29.348Z,28.40
2022-08-29T13:59:57.534Z,28.20
2022-08-29T14:02:25.244Z,28.10
2022-08-29T14:04:52.370Z,28.20
2022-08-29T14:07:25.724Z,28.30
2022-08-29T14:09:53.797Z,28.60
2022-08-29T14:12:21.459Z,28.80
2022-08-29T14:15:05.299Z,28.90
2022-08-29T14:17:35.428Z,28.80
2022-08-29T14:20:02.465Z,28.80
2022-08-29T14:22:29.230Z,28.80
2022-08-29T14:24:56.044Z,28.70
2022-08-29T14:27:22.947Z,28.60
2022-08-29T14:29:51.155Z,28.50
2022-08-29T14:32:18.161Z,28.50
2022-08-29T14:34:51.132Z,28.50
2022-08-29T14:37:19.564Z,28.50
2022-08-29T14:39:49.612Z,28.30
2022-08-29T14:42:17.596Z,28.20
2022-08-29T14:44:44.720Z,28.00
2022-08-29T14:47:11.795Z,27.70
2022-08-29T14:49:38.892Z,27.30
2022-08-29T14:52:06.333Z,26.80
2022-08-29T14:54:33.313Z,26.50
2022-08-29T14:57:00.572Z,26.30
2022-08-29T14:59:28.055Z,26.40
2022-08-29T15:01:55.507Z,26.20
2022-08-29T15:04:35.131Z,26.30
2022-08-29T15:07:05.819Z,26.50
2022-08-29T15:09:32.962Z,26.50
2022-08-29T15:11:59.846Z,26.70
2022-08-29T15:14:26.765Z,26.90
2022-08-29T15:16:53.669Z,27.10
2022-08-29T15:22:08.674Z,27.30
2022-08-29T15:24:35.662Z,27.40
2022-08-29T15:27:03.121Z,27.50
2022-08-29T15:29:30.082Z,27.60
2022-08-29T15:31:57.437Z,27.80
2022-08-29T15:34:28.508Z,27.80
2022-08-29T15:36:56.184Z,27.80
2022-08-29T15:39:25.516Z,27.80
2022-08-29T15:41:52.396Z,27.90
2022-08-29T15:44:19.452Z,27.90
2022-08-29T15:46:50.759Z,28.00
2022-08-29T15:49:19.993Z,27.90
2022-08-29T15:51:48.424Z,27.80
2022-08-29T15:54:15.842Z,27.60
2022-08-29T15:56:43.001Z,27.40
2022-08-29T15:59:11.765Z,27.30
2022-08-29T16:01:45.370Z,27.30
2022-08-29T16:04:13.044Z,27.20
2022-08-29T16:06:40.225Z,27.20
2022-08-29T16:09:15.379Z,27.10
2022-08-29T16:11:48.174Z,27.10
2022-08-29T16:14:57.617Z,27.10
2022-08-29T16:17:04.942Z,27.20
2022-08-29T16:19:32.270Z,27.10
2022-08-29T16:22:04.241Z,27.00
2022-08-29T16:24:32.087Z,27.00
2022-08-29T16:26:59.784Z,27.10
2022-08-29T16:29:27.120Z,27.10
2022-08-29T16:31:56.049Z,27.10
2022-08-29T16:34:28.726Z,27.10
2022-08-29T16:37:00.351Z,27.10
2022-08-29T16:39:28.287Z,27.10
2022-08-29T16:41:55.455Z,27.10
2022-08-29T16:44:24.505Z,27.20
2022-08-29T16:46:51.828Z,27.20
2022-08-29T16:49:19.012Z,27.20
2022-08-29T16:51:46.097Z,27.10
2022-08-29T16:54:13.356Z,27.10
2022-08-29T16:56:40.217Z,27.10
2022-08-29T16:59:07.629Z,27.10
2022-08-29T17:01:37.172Z,27.20
2022-08-29T17:04:10.626Z,27.10
2022-08-29T17:06:38.964Z,26.90
2022-08-29T17:09:08.665Z,26.90
2022-08-29T17:11:37.356Z,26.80
2022-08-29T17:14:05.148Z,26.80
2022-08-29T17:16:32.346Z,26.60
2022-08-29T17:18:59.992Z,26.60
2022-08-29T17:21:27.231Z,26.60
2022-08-29T17:23:55.448Z,26.70
2022-08-29T17:26:22.701Z,26.60
2022-08-29T17:28:49.564Z,26.50
2022-08-29T17:31:16.870Z,26.50
2022-08-29T17:33:44.306Z,26.50
2022-08-29T17:36:12.083Z,26.40
2022-08-29T17:38:45.103Z,26.30
2022-08-29T17:41:17.595Z,26.30
2022-08-29T17:43:46.150Z,26.30
2022-08-29T17:46:13.259Z,26.20
2022-08-29T17:48:40.388Z,26.20
2022-08-29T17:51:07.593Z,26.20
2022-08-29T17:53:35.240Z,26.20
2022-08-29T17:56:17.667Z,26.20
2022-08-29T17:58:45.087Z,26.10
2022-08-29T18:01:16.472Z,26.10
2022-08-29T18:03:44.588Z,26.10
2022-08-29T18:06:14.442Z,26.00
2022-08-29T18:08:48.443Z,26.00
2022-08-29T18:11:16.559Z,25.90
2022-08-29T18:13:43.855Z,25.90
2022-08-29T18:16:11.957Z,25.90
2022-08-29T18:18:39.082Z,25.90
2022-08-29T18:21:06.118Z,25.90
2022-08-29T18:23:33.707Z,25.80
2022-08-29T18:26:01.705Z,25.80
2022-08-29T18:28:28.717Z,25.80
2022-08-29T18:30:56.233Z,25.80
2022-08-29T18:33:26.243Z,25.80
2022-08-29T18:35:58.477Z,25.80
2022-08-29T18:38:25.331Z,25.80
2022-08-29T18:40:53.724Z,25.70
2022-08-29T18:43:22.627Z,25.70
2022-08-29T18:45:50.255Z,25.60
2022-08-29T18:48:17.416Z,25.50
2022-08-29T18:50:45.054Z,25.60
2022-08-29T18:53:15.023Z,25.50
2022-08-29T18:55:48.721Z,25.50
2022-08-29T18:58:20.059Z,25.50
2022-08-29T19:00:47.045Z,25.50
2022-08-29T19:03:14.654Z,25.40
2022-08-29T19:05:46.937Z,25.40
2022-08-29T19:08:15.493Z,25.30
2022-08-29T19:10:45.933Z,25.30
2022-08-29T19:13:14.364Z,25.30
2022-08-29T19:15:42.681Z,25.30
2022-08-29T19:18:10.151Z,25.30
2022-08-29T19:20:55.978Z,25.30
2022-08-29T19:23:24.090Z,25.30
2022-08-29T19:25:51.450Z,25.30
2022-08-29T19:28:19.928Z,25.20
2022-08-29T19:30:48.686Z,25.20
2022-08-29T19:33:17.884Z,25.10
2022-08-29T19:35:49.084Z,25.10
2022-08-29T19:38:16.599Z,25.00
2022-08-29T19:40:44.849Z,25.10
2022-08-29T19:43:13.932Z,25.00
2022-08-29T19:45:42.856Z,25.00
2022-08-29T19:48:10.706Z,24.90
2022-08-29T19:50:42.274Z,24.90
2022-08-29T19:53:10.048Z,24.90
2022-08-29T19:55:38.869Z,24.90
2022-08-29T19:58:07.026Z,24.90
2022-08-29T20:00:34.894Z,24.80
2022-08-29T20:03:01.996Z,24.80
2022-08-29T20:05:28.897Z,24.80
2022-08-29T20:07:55.969Z,24.80
2022-08-29T20:10:25.089Z,24.70
2022-08-29T20:12:53.658Z,24.70
2022-08-29T20:15:21.975Z,24.60
2022-08-29T20:18:02.347Z,24.60
2022-08-29T20:20:34.524Z,24.50
2022-08-29T20:23:01.866Z,24.50
2022-08-29T20:25:29.186Z,24.50
2022-08-29T20:27:56.034Z,24.60
2022-08-29T20:30:27.316Z,24.60
2022-08-29T20:32:54.740Z,24.60
2022-08-29T20:35:41.555Z,24.50
2022-08-29T20:38:09.811Z,24.50
2022-08-29T20:40:38.010Z,24.50
2022-08-29T20:43:06.224Z,24.40
2022-08-29T20:45:33.466Z,24.50
2022-08-29T20:48:02.013Z,24.50
2022-08-29T20:53:00.711Z,24.40
2022-08-29T20:55:27.482Z,24.30
2022-08-29T20:57:54.356Z,24.30
2022-08-29T21:00:22.203Z,24.30
2022-08-29T21:03:08.249Z,24.20
2022-08-29T21:05:43.329Z,24.20
2022-08-29T21:08:21.299Z,24.20
2022-08-29T21:10:49.775Z,24.30
2022-08-29T21:13:17.551Z,24.30
2022-08-29T21:15:45.679Z,24.20
2022-08-29T21:18:16.219Z,24.10
2022-08-29T21:20:53.967Z,24.20
2022-08-29T21:23:23.411Z,24.20
2022-08-29T21:26:00.870Z,24.20
2022-08-29T21:28:29.504Z,24.10
2022-08-29T21:31:02.310Z,24.10
2022-08-29T21:33:29.194Z,24.10
2022-08-29T21:35:59.810Z,24.20
2022-08-29T21:38:28.293Z,24.10
2022-08-29T21:40:58.669Z,24.10
2022-08-29T21:43:25.616Z,24.10
2022-08-29T21:45:52.421Z,24.10
2022-08-29T21:48:19.347Z,24.00
2022-08-29T21:50:46.268Z,23.90
2022-08-29T21:53:14.638Z,23.90
2022-08-29T21:55:42.938Z,23.90
2022-08-29T21:58:09.757Z,23.90
2022-08-29T22:00:42.103Z,23.80
2022-08-29T22:03:12.237Z,23.70
2022-08-29T22:05:43.692Z,23.70
2022-08-29T22:08:13.905Z,23.60
2022-08-29T22:10:42.197Z,23.70
2022-08-29T22:13:09.128Z,23.70
2022-08-29T22:15:54.484Z,23.70
2022-08-29T22:18:22.370Z,23.60
2022-08-29T22:20:52.926Z,23.50
2022-08-29T22:23:23.018Z,23.60
2022-08-29T22:25:50.171Z,23.50
2022-08-29T22:28:17.342Z,23.50
2022-08-29T22:30:44.165Z,23.40
2022-08-29T22:33:16.151Z,23.40
2022-08-29T22:35:43.625Z,23.40
2022-08-29T22:38:10.712Z,23.50
2022-08-29T22:40:37.576Z,23.50
2022-08-29T22:43:04.472Z,23.40
2022-08-29T22:45:32.308Z,23.30
2022-08-29T22:47:59.326Z,23.30
2022-08-29T22:50:27.271Z,23.30
2022-08-29T22:52:58.825Z,23.30
2022-08-29T22:57:52.359Z,23.20
2022-08-29T23:00:23.399Z,23.30
2022-08-29T23:02:51.151Z,23.20
2022-08-29T23:05:20.030Z,23.10
2022-08-29T23:07:46.919Z,23.10
2022-08-29T23:10:15.268Z,23.10
2022-08-29T23:12:42.628Z,23.10
2022-08-29T23:15:14.895Z,23.10
2022-08-29T23:17:42.015Z,23.10
2022-08-29T23:20:11.340Z,23.10
2022-08-29T23:22:38.856Z,23.00
2022-08-29T23:25:08.726Z,23.00
2022-08-29T23:27:35.854Z,23.00
2022-08-29T23:30:05.150Z,23.00
2022-08-29T23:32:31.943Z,23.00
2022-08-29T23:34:58.738Z,23.00
2022-08-29T23:37:26.105Z,23.00
2022-08-29T23:39:52.985Z,22.90
2022-08-29T23:42:19.815Z,22.90
2022-08-29T23:44:48.507Z,22.80
2022-08-29T23:47:16.455Z,22.80
2022-08-29T23:49:43.259Z,22.80
2022-08-29T23:52:10.132Z,22.80
2022-08-29T23:54:36.991Z,22.80
2022-08-29T23:57:04.422Z,22.80
2022-08-29T23:59:52.071Z,22.90
